• Join FlightAware (Why Join?)
  • Login
  • US Flag 
09:56PM EST


 

Airport Tracker/Info


-or-


 

Live Flight TrackerFlight Track Log ✈ SWA1903 ✈ 23-May-2013 ✈ KBWI - KDTW

Flight Track Log - Related Links

Times and Time Zones

All times are in EDT time to prevent confusion due to time zone crossing. See the SWA1903 flight status page for this flight to view local times or setup timezone preferences in your user account.

Time Position Orientation Groundspeed Altitude Reporting Facility
EDT Latitude Longitude Course Direction KTS MPH feet Rate Location/Type
07:43AM 39.1833 -76.7000 288° West 158 182 1,700  Level Potomac TRACON
07:44AM 39.2000 -76.7667 288° West 202 232 3,700 1,860 Climbing Potomac TRACON
07:45AM 39.2167 -76.8333 288° West 258 297 5,300 2,820 Climbing Potomac TRACON
07:46AM 39.2500 -76.9333 293° West 270 311 9,100 3,060 Climbing Potomac TRACON
07:47AM 39.2833 -77.0333 293° West 310 357 11,500 3,060 Climbing Potomac TRACON
07:48AM 39.3167 -77.1500 290° West 346 398 15,300 2,700 Climbing Potomac TRACON
07:49AM 39.3500 -77.2667 290° West 361 415 17,000 1,020 Climbing Potomac TRACON
07:50AM 39.3939 -77.4017 293° West 374 430 17,500 1,500 Climbing Washington Center
07:51AM 39.4356 -77.5264 293° West 374 430 20,200 2,580 Climbing Washington Center
07:52AM 39.4772 -77.6592 292° West 379 436 22,600 2,400 Climbing Washington Center
07:53AM 39.5183 -77.8003 291° West 401 461 25,000 2,160 Climbing Washington Center
07:54AM 39.5617 -77.9414 292° West 414 476 27,000 1,980 Climbing Washington Center
07:56AM 39.6600 -78.2639 292° West 450 518 31,400 2,100 Climbing Cleveland Center
07:57AM 39.7025 -78.4056 291° West 439 505 33,800 1,260 Climbing Cleveland Center
07:58AM 39.7447 -78.5528 290° West 434 499 34,000 60 Climbing Cleveland Center
07:59AM 39.7800 -78.6653 292° West 429 494 34,000  Level Cleveland Center
08:00AM 39.8386 -78.8094 298° West 424 488 34,000  Level Cleveland Center
08:01AM 39.9011 -78.9406 302° West 424 488 34,000  Level Cleveland Center
08:02AM 39.9675 -79.0689 304° West 432 497 34,000  Level Cleveland Center
08:03AM 40.0361 -79.2164 301° West 427 491 34,000  Level Cleveland Center
08:04AM 40.0981 -79.3456 302° West 422 486 34,000  Level Cleveland Center
08:05AM 40.1578 -79.4747 301° West 422 486 34,000 -300 Level Cleveland Center
08:06AM 40.2194 -79.6069 301° West 422 486 33,400 -840 Descending Cleveland Center
08:07AM 40.2808 -79.7367 302° West 422 486 32,400 -720 Descending Cleveland Center
08:08AM 40.3400 -79.8694 300° West 422 486 32,000 -240 Descending Cleveland Center
08:09AM 40.4014 -79.9969 302° West 422 486 32,000  Level Cleveland Center
08:10AM 40.4539 -80.1247 298° West 427 491 32,000 -60 Level Cleveland Center
08:11AM 40.5128 -80.2528 301° West 427 491 31,900 -660 Descending Cleveland Center
08:12AM 40.5819 -80.3972 302° West 427 491 30,700 -960 Descending Cleveland Center
08:13AM 40.6342 -80.5228 299° West 427 491 30,000 -360 Descending Cleveland Center
08:14AM 40.6925 -80.6544 300° West 427 491 30,000  Level Cleveland Center
08:15AM 40.7633 -80.7942 304° West 422 486 30,000  Level Cleveland Center
08:16AM 40.8192 -80.9206 300° West 417 480 30,000  Level Cleveland Center
08:17AM 40.8772 -81.0556 300° West 422 486 30,000  Level Cleveland Center
08:18AM 40.9267 -81.1739 299° West 421 484 30,000  Level Cleveland Center
08:19AM 40.9883 -81.3147 300° West 410 472 30,000  Level Cleveland Center
08:20AM 41.0458 -81.4447 300° West 410 472 30,000  Level Cleveland Center
08:21AM 41.1011 -81.5722 300° West 405 466 30,000  Level Cleveland Center
08:22AM 41.1603 -81.6972 302° West 398 458 30,000 -300 Level Cleveland Center
08:23AM 41.2153 -81.8281 299° West 403 464 29,400 -1,560 Descending Cleveland Center
08:24AM 41.2722 -81.9561 301° West 403 464 26,900 -2,460 Descending Cleveland Center
08:25AM 41.3289 -82.0872 300° West 403 464 24,500 -2,220 Descending Cleveland Center
08:26AM 41.3794 -82.1992 301° West 403 464 22,500 -2,040 Descending Cleveland Center
08:27AM 41.4444 -82.3089 308° West 386 444 20,500 -1,920 Descending Cleveland Center
08:28AM 41.5075 -82.4131 309° West 369 425 18,700 -1,860 Descending Cleveland Center
08:29AM 41.5725 -82.5233 308° West 357 411 16,800 -1,800 Descending Cleveland Center
08:30AM 41.6292 -82.6167 309° West 344 396 15,100 -1,740 Descending Cleveland Center
08:31AM 41.6758 -82.6933 309° West 317 365 13,700 -1,500 Descending Cleveland Center
08:32AM 41.7322 -82.7925 307° West 323 372 12,100 -780 Descending Cleveland Center
08:33AM 41.8036 -82.8728 320° Northwest 309 356 12,100 -180 Level Cleveland Center
08:34AM 41.8747 -82.9619 317° Northwest 318 366 11,800 -540 Descending Cleveland Center
08:35AM 41.9339 -83.0311 319° Northwest 327 376 11,100 -420 Descending Cleveland Center
08:36AM 42.0069 -83.1206 318° Northwest 344 396 11,000 -60 Descending Cleveland Center
08:37AM 42.0822 -83.2019 321° Northwest 355 409 11,000 -240 Level Cleveland Center
08:38AM 42.1583 -83.2414 339° North 317 365 10,600 -600 Descending Cleveland Center
08:39AM 42.2322 -83.2025 21° North 247 284 9,800 -1,080 Descending Cleveland Center
08:40AM 42.2958 -83.1544 29° Northeast 244 281 8,400 -1,260 Descending Cleveland Center
08:41AM 42.3575 -83.1008 33° Northeast 238 274 7,200 -1,080 Descending Cleveland Center
08:42AM 42.4083 -83.0636 28° Northeast 229 264 6,300 -600 Descending Cleveland Center
08:43AM 42.4711 -83.0575 North 207 238 6,100 -120 Descending Cleveland Center
08:44AM 42.4947 -83.1147 299° West 182 209 6,100 -60 Level Cleveland Center
08:45AM 42.4583 -83.1611 223° Southwest 184 212 6,000 -540 Descending Cleveland Center
08:46AM 42.4097 -83.1928 206° Southwest 182 209 5,000 -1,020 Descending Cleveland Center
08:47AM 42.3672 -83.2278 211° Southwest 185 213 4,000 -1,020 Descending Cleveland Center